South Twigg, Illinois
Current Conditions -  °F | °C
As of 11:35 PM on Wednesday 26 Nov 2014 (Local Time) from KHSB Reporting Station
Light Snow Light Snow  
Wind Chill: 29°   Ceiling: 400
Heat Index: 33°   Visibility: 3mi
Dew Point: 33°   Wind: 5mph
Humidity: 100%   Direction: 340°NNW
Pressure: 30.15"   Gusts: NA
Location:  37.962°N, 88.4577°W
Report Text: KHSB 270535Z AUTO 34004KT 3SM -SN OVC004 01/01 A3015 RMK AO2 P0002 T00050005
Loading
Personal Weather Stations






























Interactive Weather Map New forecast layout! Learn more

10-Day Weather Forecast

Advertisements
Track Severe Weather on mobile